sensor_id;sensor_type;location;lat;lon;timestamp;P1;durP1;ratioP1;P2;durP2;ratioP2
16727;SDS011;8482;54.396;18.590;2023-06-22T00:00:52;6.70;;;4.65;;
16727;SDS011;8482;54.396;18.590;2023-06-22T00:03:24;6.05;;;4.15;;
16727;SDS011;8482;54.396;18.590;2023-06-22T00:06:33;6.90;;;4.80;;
16727;SDS011;8482;54.396;18.590;2023-06-22T00:09:24;6.40;;;4.40;;
16727;SDS011;8482;54.396;18.590;2023-06-22T00:11:55;6.90;;;4.13;;
16727;SDS011;8482;54.396;18.590;2023-06-22T00:14:22;7.32;;;4.88;;
16727;SDS011;8482;54.396;18.590;2023-06-22T00:16:47;7.40;;;4.78;;
16727;SDS011;8482;54.396;18.590;2023-06-22T00:19:17;6.93;;;4.47;;
16727;SDS011;8482;54.396;18.590;2023-06-22T00:21:45;7.70;;;4.47;;
16727;SDS011;8482;54.396;18.590;2023-06-22T00:24:25;6.97;;;4.68;;
16727;SDS011;8482;54.396;18.590;2023-06-22T00:26:58;7.80;;;4.90;;
16727;SDS011;8482;54.396;18.590;2023-06-22T00:29:34;6.15;;;4.35;;
16727;SDS011;8482;54.396;18.590;2023-06-22T00:32:10;6.63;;;4.15;;
16727;SDS011;8482;54.396;18.590;2023-06-22T00:34:38;7.05;;;4.45;;
16727;SDS011;8482;54.396;18.590;2023-06-22T00:37:12;7.65;;;4.47;;
16727;SDS011;8482;54.396;18.590;2023-06-22T00:39:41;6.70;;;4.25;;
16727;SDS011;8482;54.396;18.590;2023-06-22T00:42:15;6.65;;;4.40;;
16727;SDS011;8482;54.396;18.590;2023-06-22T00:44:51;11.50;;;5.82;;
16727;SDS011;8482;54.396;18.590;2023-06-22T00:47:22;8.73;;;5.38;;
16727;SDS011;8482;54.396;18.590;2023-06-22T00:49:52;8.77;;;5.40;;
16727;SDS011;8482;54.396;18.590;2023-06-22T00:53:04;8.38;;;5.47;;
16727;SDS011;8482;54.396;18.590;2023-06-22T00:55:41;9.52;;;6.00;;
16727;SDS011;8482;54.396;18.590;2023-06-22T00:58:14;9.65;;;6.00;;
16727;SDS011;8482;54.396;18.590;2023-06-22T01:00:59;10.63;;;5.47;;
16727;SDS011;8482;54.396;18.590;2023-06-22T01:03:47;7.85;;;5.25;;
16727;SDS011;8482;54.396;18.590;2023-06-22T01:06:52;8.65;;;5.15;;
16727;SDS011;8482;54.396;18.590;2023-06-22T01:10:06;8.93;;;5.45;;
16727;SDS011;8482;54.396;18.590;2023-06-22T01:16:40;7.63;;;5.38;;
16727;SDS011;8482;54.396;18.590;2023-06-22T01:19:48;9.07;;;5.55;;
16727;SDS011;8482;54.396;18.590;2023-06-22T01:22:30;8.90;;;6.60;;
16727;SDS011;8482;54.396;18.590;2023-06-22T01:25:13;10.48;;;6.00;;
16727;SDS011;8482;54.396;18.590;2023-06-22T01:28:19;8.98;;;5.43;;
16727;SDS011;8482;54.396;18.590;2023-06-22T01:31:06;7.53;;;5.43;;
16727;SDS011;8482;54.396;18.590;2023-06-22T01:33:59;9.13;;;5.32;;
16727;SDS011;8482;54.396;18.590;2023-06-22T01:36:36;9.98;;;5.28;;
16727;SDS011;8482;54.396;18.590;2023-06-22T01:39:24;9.68;;;5.72;;
16727;SDS011;8482;54.396;18.590;2023-06-22T01:42:05;8.32;;;5.13;;
16727;SDS011;8482;54.396;18.590;2023-06-22T01:44:34;7.68;;;5.10;;
16727;SDS011;8482;54.396;18.590;2023-06-22T01:47:18;10.48;;;6.40;;
16727;SDS011;8482;54.396;18.590;2023-06-22T01:50:03;9.35;;;6.43;;
16727;SDS011;8482;54.396;18.590;2023-06-22T01:52:41;12.93;;;5.95;;
16727;SDS011;8482;54.396;18.590;2023-06-22T01:55:10;10.73;;;5.70;;
16727;SDS011;8482;54.396;18.590;2023-06-22T01:57:48;8.27;;;5.80;;
16727;SDS011;8482;54.396;18.590;2023-06-22T02:00:26;8.45;;;5.28;;
16727;SDS011;8482;54.396;18.590;2023-06-22T02:05:47;7.88;;;5.78;;
16727;SDS011;8482;54.396;18.590;2023-06-22T02:08:33;9.98;;;5.85;;
16727;SDS011;8482;54.396;18.590;2023-06-22T02:11:22;11.18;;;6.32;;
16727;SDS011;8482;54.396;18.590;2023-06-22T02:14:26;10.65;;;5.53;;
16727;SDS011;8482;54.396;18.590;2023-06-22T02:17:05;8.60;;;5.80;;
16727;SDS011;8482;54.396;18.590;2023-06-22T02:20:01;11.30;;;6.28;;
16727;SDS011;8482;54.396;18.590;2023-06-22T02:22:32;10.35;;;6.75;;
16727;SDS011;8482;54.396;18.590;2023-06-22T02:25:09;9.25;;;6.45;;
16727;SDS011;8482;54.396;18.590;2023-06-22T02:27:43;10.60;;;6.85;;
16727;SDS011;8482;54.396;18.590;2023-06-22T02:30:31;8.55;;;5.97;;
16727;SDS011;8482;54.396;18.590;2023-06-22T02:33:05;9.32;;;6.03;;
16727;SDS011;8482;54.396;18.590;2023-06-22T02:35:31;9.65;;;6.60;;
16727;SDS011;8482;54.396;18.590;2023-06-22T02:38:00;13.32;;;6.05;;
16727;SDS011;8482;54.396;18.590;2023-06-22T02:40:46;10.35;;;7.00;;
16727;SDS011;8482;54.396;18.590;2023-06-22T02:43:12;11.02;;;7.40;;
16727;SDS011;8482;54.396;18.590;2023-06-22T02:46:03;10.52;;;7.15;;
16727;SDS011;8482;54.396;18.590;2023-06-22T02:48:42;12.07;;;8.05;;
16727;SDS011;8482;54.396;18.590;2023-06-22T02:51:18;10.38;;;7.47;;
16727;SDS011;8482;54.396;18.590;2023-06-22T02:53:48;10.43;;;8.02;;
16727;SDS011;8482;54.396;18.590;2023-06-22T02:56:39;10.95;;;7.32;;
16727;SDS011;8482;54.396;18.590;2023-06-22T02:59:28;11.30;;;7.70;;
16727;SDS011;8482;54.396;18.590;2023-06-22T03:02:04;9.57;;;7.30;;
16727;SDS011;8482;54.396;18.590;2023-06-22T03:04:31;10.95;;;7.40;;
16727;SDS011;8482;54.396;18.590;2023-06-22T03:07:20;15.55;;;8.02;;
16727;SDS011;8482;54.396;18.590;2023-06-22T03:09:56;13.80;;;8.90;;
16727;SDS011;8482;54.396;18.590;2023-06-22T03:12:50;13.80;;;8.15;;
16727;SDS011;8482;54.396;18.590;2023-06-22T03:15:28;10.98;;;8.45;;
16727;SDS011;8482;54.396;18.590;2023-06-22T03:18:12;13.20;;;8.25;;
16727;SDS011;8482;54.396;18.590;2023-06-22T03:21:15;10.63;;;7.72;;
16727;SDS011;8482;54.396;18.590;2023-06-22T03:23:50;12.77;;;8.02;;
16727;SDS011;8482;54.396;18.590;2023-06-22T03:26:29;11.18;;;7.50;;
16727;SDS011;8482;54.396;18.590;2023-06-22T03:29:24;12.52;;;8.73;;
16727;SDS011;8482;54.396;18.590;2023-06-22T03:31:55;11.15;;;6.95;;
16727;SDS011;8482;54.396;18.590;2023-06-22T03:34:42;12.52;;;7.38;;
16727;SDS011;8482;54.396;18.590;2023-06-22T03:40:15;12.43;;;7.47;;
16727;SDS011;8482;54.396;18.590;2023-06-22T03:42:50;13.10;;;7.68;;
16727;SDS011;8482;54.396;18.590;2023-06-22T03:45:18;12.13;;;7.80;;
16727;SDS011;8482;54.396;18.590;2023-06-22T03:48:00;11.98;;;7.57;;
16727;SDS011;8482;54.396;18.590;2023-06-22T03:50:28;12.27;;;7.18;;
16727;SDS011;8482;54.396;18.590;2023-06-22T03:53:12;10.15;;;6.88;;
16727;SDS011;8482;54.396;18.590;2023-06-22T03:55:59;11.20;;;6.90;;
16727;SDS011;8482;54.396;18.590;2023-06-22T03:58:34;11.88;;;7.25;;
16727;SDS011;8482;54.396;18.590;2023-06-22T04:01:29;11.07;;;6.95;;
16727;SDS011;8482;54.396;18.590;2023-06-22T04:04:05;10.00;;;6.50;;
16727;SDS011;8482;54.396;18.590;2023-06-22T04:07:04;11.13;;;7.10;;
16727;SDS011;8482;54.396;18.590;2023-06-22T04:09:53;10.20;;;7.00;;
16727;SDS011;8482;54.396;18.590;2023-06-22T04:12:19;11.25;;;7.03;;
16727;SDS011;8482;54.396;18.590;2023-06-22T04:14:45;10.60;;;6.57;;
16727;SDS011;8482;54.396;18.590;2023-06-22T04:17:11;14.52;;;7.72;;
16727;SDS011;8482;54.396;18.590;2023-06-22T04:19:56;13.13;;;7.93;;
16727;SDS011;8482;54.396;18.590;2023-06-22T04:22:22;10.25;;;6.95;;
16727;SDS011;8482;54.396;18.590;2023-06-22T04:24:47;9.38;;;6.55;;
16727;SDS011;8482;54.396;18.590;2023-06-22T04:27:15;12.07;;;7.38;;
16727;SDS011;8482;54.396;18.590;2023-06-22T04:29:41;11.07;;;6.82;;
16727;SDS011;8482;54.396;18.590;2023-06-22T04:32:14;8.35;;;6.28;;
16727;SDS011;8482;54.396;18.590;2023-06-22T04:34:41;11.63;;;6.40;;
16727;SDS011;8482;54.396;18.590;2023-06-22T04:37:07;8.40;;;6.30;;
16727;SDS011;8482;54.396;18.590;2023-06-22T04:39:34;10.75;;;6.55;;
16727;SDS011;8482;54.396;18.590;2023-06-22T04:42:00;11.57;;;7.88;;
16727;SDS011;8482;54.396;18.590;2023-06-22T04:44:27;10.45;;;6.85;;
16727;SDS011;8482;54.396;18.590;2023-06-22T04:46:56;9.50;;;6.00;;
16727;SDS011;8482;54.396;18.590;2023-06-22T04:49:28;9.23;;;6.22;;
16727;SDS011;8482;54.396;18.590;2023-06-22T04:52:01;8.68;;;5.50;;
16727;SDS011;8482;54.396;18.590;2023-06-22T04:54:29;8.25;;;6.15;;
16727;SDS011;8482;54.396;18.590;2023-06-22T04:57:01;8.98;;;5.65;;
16727;SDS011;8482;54.396;18.590;2023-06-22T04:59:31;9.00;;;5.78;;
16727;SDS011;8482;54.396;18.590;2023-06-22T05:01:57;10.70;;;6.20;;
16727;SDS011;8482;54.396;18.590;2023-06-22T05:04:26;9.88;;;6.10;;
16727;SDS011;8482;54.396;18.590;2023-06-22T05:06:56;7.95;;;5.03;;
16727;SDS011;8482;54.396;18.590;2023-06-22T05:09:24;8.05;;;5.80;;
16727;SDS011;8482;54.396;18.590;2023-06-22T05:11:50;9.43;;;5.40;;
16727;SDS011;8482;54.396;18.590;2023-06-22T05:14:17;9.43;;;5.80;;
16727;SDS011;8482;54.396;18.590;2023-06-22T05:17:34;9.05;;;5.57;;
16727;SDS011;8482;54.396;18.590;2023-06-22T05:20:10;6.40;;;4.72;;
16727;SDS011;8482;54.396;18.590;2023-06-22T05:22:40;9.20;;;5.10;;
16727;SDS011;8482;54.396;18.590;2023-06-22T05:25:08;6.72;;;4.75;;
16727;SDS011;8482;54.396;18.590;2023-06-22T05:27:36;7.60;;;5.00;;
16727;SDS011;8482;54.396;18.590;2023-06-22T05:30:15;8.00;;;4.80;;
16727;SDS011;8482;54.396;18.590;2023-06-22T05:32:50;8.63;;;4.45;;
16727;SDS011;8482;54.396;18.590;2023-06-22T05:35:20;7.28;;;4.35;;
16727;SDS011;8482;54.396;18.590;2023-06-22T05:37:46;6.63;;;4.30;;
16727;SDS011;8482;54.396;18.590;2023-06-22T05:40:14;6.85;;;3.63;;
16727;SDS011;8482;54.396;18.590;2023-06-22T05:42:42;6.70;;;4.10;;
16727;SDS011;8482;54.396;18.590;2023-06-22T05:45:14;6.35;;;3.83;;
16727;SDS011;8482;54.396;18.590;2023-06-22T05:47:43;6.75;;;4.28;;
16727;SDS011;8482;54.396;18.590;2023-06-22T05:50:12;5.53;;;2.97;;
16727;SDS011;8482;54.396;18.590;2023-06-22T05:53:00;4.97;;;3.28;;
16727;SDS011;8482;54.396;18.590;2023-06-22T05:55:31;5.95;;;3.42;;
16727;SDS011;8482;54.396;18.590;2023-06-22T05:58:00;5.65;;;2.92;;
16727;SDS011;8482;54.396;18.590;2023-06-22T06:00:35;6.13;;;3.50;;
16727;SDS011;8482;54.396;18.590;2023-06-22T06:03:05;7.68;;;3.72;;
16727;SDS011;8482;54.396;18.590;2023-06-22T06:05:40;4.95;;;3.30;;
16727;SDS011;8482;54.396;18.590;2023-06-22T06:08:06;6.55;;;3.20;;
16727;SDS011;8482;54.396;18.590;2023-06-22T06:10:32;6.95;;;3.40;;
16727;SDS011;8482;54.396;18.590;2023-06-22T06:13:01;7.43;;;3.30;;
16727;SDS011;8482;54.396;18.590;2023-06-22T06:15:39;6.57;;;3.50;;
16727;SDS011;8482;54.396;18.590;2023-06-22T06:18:05;6.10;;;2.80;;
16727;SDS011;8482;54.396;18.590;2023-06-22T06:20:36;7.32;;;3.55;;
16727;SDS011;8482;54.396;18.590;2023-06-22T06:23:02;5.28;;;2.83;;
16727;SDS011;8482;54.396;18.590;2023-06-22T06:25:28;5.47;;;2.80;;
16727;SDS011;8482;54.396;18.590;2023-06-22T06:27:57;6.95;;;3.40;;
16727;SDS011;8482;54.396;18.590;2023-06-22T06:30:31;5.07;;;3.22;;
16727;SDS011;8482;54.396;18.590;2023-06-22T06:33:32;6.32;;;3.22;;
16727;SDS011;8482;54.396;18.590;2023-06-22T06:35:58;5.00;;;2.75;;
16727;SDS011;8482;54.396;18.590;2023-06-22T06:38:26;6.32;;;3.55;;
16727;SDS011;8482;54.396;18.590;2023-06-22T06:40:55;4.88;;;2.85;;
16727;SDS011;8482;54.396;18.590;2023-06-22T06:43:24;5.53;;;3.00;;
16727;SDS011;8482;54.396;18.590;2023-06-22T06:45:50;6.93;;;2.90;;
16727;SDS011;8482;54.396;18.590;2023-06-22T06:48:16;6.75;;;2.80;;
16727;SDS011;8482;54.396;18.590;2023-06-22T06:50:42;5.50;;;2.80;;
16727;SDS011;8482;54.396;18.590;2023-06-22T06:53:09;5.47;;;2.80;;
16727;SDS011;8482;54.396;18.590;2023-06-22T06:55:35;7.43;;;4.07;;
16727;SDS011;8482;54.396;18.590;2023-06-22T06:58:03;7.13;;;2.85;;
16727;SDS011;8482;54.396;18.590;2023-06-22T07:00:32;5.13;;;2.47;;
16727;SDS011;8482;54.396;18.590;2023-06-22T07:03:08;5.45;;;2.47;;
16727;SDS011;8482;54.396;18.590;2023-06-22T07:05:34;4.57;;;2.50;;
16727;SDS011;8482;54.396;18.590;2023-06-22T07:08:46;5.15;;;2.72;;
16727;SDS011;8482;54.396;18.590;2023-06-22T07:11:12;6.00;;;2.63;;
16727;SDS011;8482;54.396;18.590;2023-06-22T07:13:38;4.57;;;2.58;;
16727;SDS011;8482;54.396;18.590;2023-06-22T07:16:04;5.20;;;2.08;;
16727;SDS011;8482;54.396;18.590;2023-06-22T07:18:30;5.07;;;2.25;;
16727;SDS011;8482;54.396;18.590;2023-06-22T07:20:59;4.07;;;2.25;;
16727;SDS011;8482;54.396;18.590;2023-06-22T07:23:28;6.55;;;2.40;;
16727;SDS011;8482;54.396;18.590;2023-06-22T07:26:00;5.20;;;1.90;;
16727;SDS011;8482;54.396;18.590;2023-06-22T07:28:27;4.13;;;2.47;;
16727;SDS011;8482;54.396;18.590;2023-06-22T07:30:56;4.82;;;2.33;;
16727;SDS011;8482;54.396;18.590;2023-06-22T07:33:22;5.45;;;1.98;;
16727;SDS011;8482;54.396;18.590;2023-06-22T07:35:48;6.57;;;2.40;;
16727;SDS011;8482;54.396;18.590;2023-06-22T07:38:16;5.97;;;2.15;;
16727;SDS011;8482;54.396;18.590;2023-06-22T07:40:42;4.90;;;2.28;;
16727;SDS011;8482;54.396;18.590;2023-06-22T07:43:08;3.90;;;2.13;;
16727;SDS011;8482;54.396;18.590;2023-06-22T07:45:34;4.05;;;2.05;;
16727;SDS011;8482;54.396;18.590;2023-06-22T07:48:00;3.72;;;1.80;;
16727;SDS011;8482;54.396;18.590;2023-06-22T07:50:36;3.85;;;1.80;;
16727;SDS011;8482;54.396;18.590;2023-06-22T07:53:02;2.70;;;1.73;;
16727;SDS011;8482;54.396;18.590;2023-06-22T07:55:28;2.67;;;1.73;;
16727;SDS011;8482;54.396;18.590;2023-06-22T07:57:54;3.38;;;2.03;;
16727;SDS011;8482;54.396;18.590;2023-06-22T08:00:20;2.45;;;1.38;;
16727;SDS011;8482;54.396;18.590;2023-06-22T08:02:49;3.17;;;1.60;;
16727;SDS011;8482;54.396;18.590;2023-06-22T08:05:15;4.82;;;2.03;;
16727;SDS011;8482;54.396;18.590;2023-06-22T08:07:42;6.50;;;2.65;;
16727;SDS011;8482;54.396;18.590;2023-06-22T08:10:11;3.58;;;2.10;;
16727;SDS011;8482;54.396;18.590;2023-06-22T08:12:41;4.88;;;2.67;;
16727;SDS011;8482;54.396;18.590;2023-06-22T08:15:07;3.85;;;2.00;;
16727;SDS011;8482;54.396;18.590;2023-06-22T08:17:34;2.78;;;1.70;;
16727;SDS011;8482;54.396;18.590;2023-06-22T08:20:03;3.20;;;1.90;;
16727;SDS011;8482;54.396;18.590;2023-06-22T08:22:39;4.72;;;1.90;;
16727;SDS011;8482;54.396;18.590;2023-06-22T18:52:32;6.28;;;2.42;;
16727;SDS011;8482;54.396;18.590;2023-06-22T18:55:03;6.13;;;2.72;;
16727;SDS011;8482;54.396;18.590;2023-06-22T18:57:36;6.72;;;2.70;;
16727;SDS011;8482;54.396;18.590;2023-06-22T19:00:05;5.25;;;2.80;;
16727;SDS011;8482;54.396;18.590;2023-06-22T19:05:37;5.85;;;2.40;;
16727;SDS011;8482;54.396;18.590;2023-06-22T19:08:06;6.25;;;2.80;;
16727;SDS011;8482;54.396;18.590;2023-06-22T19:10:40;5.20;;;2.70;;
16727;SDS011;8482;54.396;18.590;2023-06-22T19:15:51;5.93;;;2.80;;
16727;SDS011;8482;54.396;18.590;2023-06-22T19:21:01;9.68;;;3.53;;
16727;SDS011;8482;54.396;18.590;2023-06-22T19:23:37;9.00;;;3.58;;
16727;SDS011;8482;54.396;18.590;2023-06-22T19:26:14;9.63;;;3.60;;
16727;SDS011;8482;54.396;18.590;2023-06-22T19:28:46;9.55;;;3.45;;
16727;SDS011;8482;54.396;18.590;2023-06-22T19:31:16;9.95;;;3.78;;
16727;SDS011;8482;54.396;18.590;2023-06-22T19:33:46;11.82;;;4.03;;
16727;SDS011;8482;54.396;18.590;2023-06-22T19:36:25;10.77;;;4.40;;
16727;SDS011;8482;54.396;18.590;2023-06-22T19:38:57;12.43;;;4.70;;
16727;SDS011;8482;54.396;18.590;2023-06-22T19:41:28;11.10;;;4.22;;
16727;SDS011;8482;54.396;18.590;2023-06-22T19:43:55;13.15;;;4.45;;
16727;SDS011;8482;54.396;18.590;2023-06-22T19:46:28;9.18;;;3.53;;
16727;SDS011;8482;54.396;18.590;2023-06-22T19:48:56;8.43;;;3.90;;
16727;SDS011;8482;54.396;18.590;2023-06-22T19:51:32;10.40;;;3.90;;
16727;SDS011;8482;54.396;18.590;2023-06-22T19:54:06;10.98;;;3.83;;
16727;SDS011;8482;54.396;18.590;2023-06-22T19:56:35;9.68;;;4.35;;
16727;SDS011;8482;54.396;18.590;2023-06-22T19:59:08;11.40;;;4.68;;
16727;SDS011;8482;54.396;18.590;2023-06-22T20:01:40;9.90;;;4.60;;
16727;SDS011;8482;54.396;18.590;2023-06-22T20:04:09;11.70;;;4.45;;
16727;SDS011;8482;54.396;18.590;2023-06-22T20:06:35;18.00;;;4.90;;
16727;SDS011;8482;54.396;18.590;2023-06-22T20:09:02;10.82;;;4.97;;
16727;SDS011;8482;54.396;18.590;2023-06-22T20:11:31;10.25;;;3.97;;
16727;SDS011;8482;54.396;18.590;2023-06-22T20:14:02;10.65;;;4.40;;
16727;SDS011;8482;54.396;18.590;2023-06-22T20:16:28;11.30;;;4.32;;
16727;SDS011;8482;54.396;18.590;2023-06-22T20:19:09;11.80;;;5.50;;
16727;SDS011;8482;54.396;18.590;2023-06-22T20:21:39;9.32;;;4.47;;
16727;SDS011;8482;54.396;18.590;2023-06-22T20:24:07;11.65;;;4.47;;
16727;SDS011;8482;54.396;18.590;2023-06-22T20:26:39;13.82;;;4.95;;
16727;SDS011;8482;54.396;18.590;2023-06-22T20:29:26;13.38;;;5.45;;
16727;SDS011;8482;54.396;18.590;2023-06-22T20:32:01;10.82;;;4.60;;
16727;SDS011;8482;54.396;18.590;2023-06-22T20:34:35;10.05;;;4.50;;
16727;SDS011;8482;54.396;18.590;2023-06-22T20:37:13;8.77;;;4.60;;
16727;SDS011;8482;54.396;18.590;2023-06-22T20:39:40;8.13;;;4.25;;
16727;SDS011;8482;54.396;18.590;2023-06-22T20:42:08;11.63;;;4.43;;
16727;SDS011;8482;54.396;18.590;2023-06-22T20:44:37;9.43;;;4.10;;
16727;SDS011;8482;54.396;18.590;2023-06-22T20:47:03;8.93;;;4.05;;
16727;SDS011;8482;54.396;18.590;2023-06-22T20:49:29;8.07;;;4.40;;
16727;SDS011;8482;54.396;18.590;2023-06-22T20:51:55;7.60;;;4.60;;
16727;SDS011;8482;54.396;18.590;2023-06-22T20:54:22;6.90;;;3.95;;
16727;SDS011;8482;54.396;18.590;2023-06-22T20:56:48;7.13;;;4.20;;
16727;SDS011;8482;54.396;18.590;2023-06-22T20:59:14;8.68;;;3.47;;
16727;SDS011;8482;54.396;18.590;2023-06-22T21:01:41;5.97;;;3.60;;
16727;SDS011;8482;54.396;18.590;2023-06-22T21:04:11;6.25;;;4.05;;
16727;SDS011;8482;54.396;18.590;2023-06-22T21:06:38;7.63;;;3.67;;
16727;SDS011;8482;54.396;18.590;2023-06-22T21:09:03;7.57;;;3.63;;
16727;SDS011;8482;54.396;18.590;2023-06-22T21:11:29;6.05;;;3.78;;
16727;SDS011;8482;54.396;18.590;2023-06-22T21:13:55;7.13;;;3.47;;
16727;SDS011;8482;54.396;18.590;2023-06-22T21:16:21;8.18;;;4.13;;
16727;SDS011;8482;54.396;18.590;2023-06-22T21:18:47;7.50;;;4.25;;
16727;SDS011;8482;54.396;18.590;2023-06-22T21:21:13;7.68;;;3.95;;
16727;SDS011;8482;54.396;18.590;2023-06-22T21:23:39;7.10;;;3.97;;
16727;SDS011;8482;54.396;18.590;2023-06-22T21:26:05;6.50;;;3.63;;
16727;SDS011;8482;54.396;18.590;2023-06-22T21:28:31;7.20;;;3.90;;
16727;SDS011;8482;54.396;18.590;2023-06-22T21:30:57;7.97;;;4.22;;
16727;SDS011;8482;54.396;18.590;2023-06-22T21:33:23;7.78;;;4.28;;
16727;SDS011;8482;54.396;18.590;2023-06-22T21:35:49;7.68;;;4.15;;
16727;SDS011;8482;54.396;18.590;2023-06-22T21:38:15;7.22;;;3.80;;
16727;SDS011;8482;54.396;18.590;2023-06-22T21:40:41;7.03;;;3.85;;
16727;SDS011;8482;54.396;18.590;2023-06-22T21:43:07;9.45;;;4.43;;
16727;SDS011;8482;54.396;18.590;2023-06-22T21:45:33;7.40;;;3.97;;
16727;SDS011;8482;54.396;18.590;2023-06-22T21:47:58;7.32;;;3.90;;
16727;SDS011;8482;54.396;18.590;2023-06-22T21:50:24;6.45;;;4.18;;
16727;SDS011;8482;54.396;18.590;2023-06-22T21:52:50;6.72;;;4.18;;
16727;SDS011;8482;54.396;18.590;2023-06-22T21:55:16;7.53;;;4.10;;
16727;SDS011;8482;54.396;18.590;2023-06-22T21:57:42;7.50;;;4.15;;
16727;SDS011;8482;54.396;18.590;2023-06-22T22:00:08;7.10;;;4.00;;
16727;SDS011;8482;54.396;18.590;2023-06-22T22:02:36;6.25;;;4.38;;
16727;SDS011;8482;54.396;18.590;2023-06-22T22:05:03;6.65;;;3.72;;
16727;SDS011;8482;54.396;18.590;2023-06-22T22:07:29;8.15;;;3.97;;
16727;SDS011;8482;54.396;18.590;2023-06-22T22:09:58;6.35;;;3.88;;
16727;SDS011;8482;54.396;18.590;2023-06-22T22:12:24;7.53;;;4.38;;
16727;SDS011;8482;54.396;18.590;2023-06-22T22:14:50;7.35;;;4.20;;
16727;SDS011;8482;54.396;18.590;2023-06-22T22:17:16;8.43;;;4.45;;
16727;SDS011;8482;54.396;18.590;2023-06-22T22:19:41;7.78;;;4.28;;
16727;SDS011;8482;54.396;18.590;2023-06-22T22:22:07;8.48;;;4.05;;
16727;SDS011;8482;54.396;18.590;2023-06-22T22:24:33;5.80;;;3.95;;
16727;SDS011;8482;54.396;18.590;2023-06-22T22:26:59;6.57;;;3.75;;
16727;SDS011;8482;54.396;18.590;2023-06-22T22:29:25;6.75;;;4.00;;
16727;SDS011;8482;54.396;18.590;2023-06-22T22:31:54;7.95;;;4.18;;
16727;SDS011;8482;54.396;18.590;2023-06-22T22:34:21;7.63;;;4.40;;
16727;SDS011;8482;54.396;18.590;2023-06-22T22:36:46;7.85;;;4.18;;
16727;SDS011;8482;54.396;18.590;2023-06-22T22:39:13;10.10;;;4.40;;
16727;SDS011;8482;54.396;18.590;2023-06-22T22:42:04;6.28;;;4.13;;
16727;SDS011;8482;54.396;18.590;2023-06-22T22:44:31;7.00;;;4.15;;
16727;SDS011;8482;54.396;18.590;2023-06-22T22:46:57;6.88;;;3.92;;
16727;SDS011;8482;54.396;18.590;2023-06-22T22:49:24;9.15;;;4.50;;
16727;SDS011;8482;54.396;18.590;2023-06-22T22:51:50;8.40;;;4.45;;
16727;SDS011;8482;54.396;18.590;2023-06-22T22:54:16;8.38;;;4.70;;
16727;SDS011;8482;54.396;18.590;2023-06-22T22:56:43;7.25;;;4.28;;
16727;SDS011;8482;54.396;18.590;2023-06-22T22:59:12;7.65;;;4.60;;
16727;SDS011;8482;54.396;18.590;2023-06-22T23:01:38;7.55;;;3.80;;
16727;SDS011;8482;54.396;18.590;2023-06-22T23:04:05;7.30;;;3.88;;
16727;SDS011;8482;54.396;18.590;2023-06-22T23:06:31;6.13;;;3.90;;
16727;SDS011;8482;54.396;18.590;2023-06-22T23:08:57;7.00;;;4.25;;
16727;SDS011;8482;54.396;18.590;2023-06-22T23:11:24;9.25;;;4.35;;
16727;SDS011;8482;54.396;18.590;2023-06-22T23:13:51;6.35;;;3.92;;
16727;SDS011;8482;54.396;18.590;2023-06-22T23:16:28;7.88;;;4.25;;
16727;SDS011;8482;54.396;18.590;2023-06-22T23:18:54;7.70;;;4.10;;
16727;SDS011;8482;54.396;18.590;2023-06-22T23:21:21;8.18;;;3.97;;
16727;SDS011;8482;54.396;18.590;2023-06-22T23:23:47;8.30;;;3.92;;
16727;SDS011;8482;54.396;18.590;2023-06-22T23:26:13;7.63;;;4.00;;
16727;SDS011;8482;54.396;18.590;2023-06-22T23:28:42;5.95;;;3.55;;
16727;SDS011;8482;54.396;18.590;2023-06-22T23:31:08;6.28;;;3.63;;
16727;SDS011;8482;54.396;18.590;2023-06-22T23:33:34;6.15;;;3.88;;
16727;SDS011;8482;54.396;18.590;2023-06-22T23:36:02;6.38;;;3.92;;
16727;SDS011;8482;54.396;18.590;2023-06-22T23:38:29;7.07;;;3.88;;
16727;SDS011;8482;54.396;18.590;2023-06-22T23:40:57;8.60;;;3.85;;
16727;SDS011;8482;54.396;18.590;2023-06-22T23:43:23;6.72;;;3.90;;
16727;SDS011;8482;54.396;18.590;2023-06-22T23:45:50;6.40;;;3.75;;
16727;SDS011;8482;54.396;18.590;2023-06-22T23:48:16;7.15;;;3.80;;
16727;SDS011;8482;54.396;18.590;2023-06-22T23:50:42;6.80;;;4.15;;
16727;SDS011;8482;54.396;18.590;2023-06-22T23:53:07;7.47;;;4.15;;
16727;SDS011;8482;54.396;18.590;2023-06-22T23:55:38;8.02;;;4.43;;
16727;SDS011;8482;54.396;18.590;2023-06-22T23:58:03;5.97;;;4.10;;
